createdAt,value
2019-04-11T00:01:02.414Z,2.5
2019-04-11T00:02:14.685Z,2.8
2019-04-11T00:03:26.844Z,2.3
2019-04-11T00:04:39.007Z,2.3
2019-04-11T00:05:51.000Z,2.4
2019-04-11T00:07:03.396Z,3.3
2019-04-11T00:08:15.583Z,2
2019-04-11T00:09:27.776Z,2.2
2019-04-11T00:11:52.158Z,2.2
2019-04-11T00:13:04.370Z,2.3
2019-04-11T00:14:16.554Z,2.1
2019-04-11T00:15:28.000Z,2.5
2019-04-11T00:16:40.933Z,2.3
2019-04-11T00:17:53.000Z,2.3
2019-04-11T00:19:05.000Z,2.4
2019-04-11T00:20:17.517Z,2.3
2019-04-11T00:21:29.708Z,2.5
2019-04-11T00:22:41.910Z,2.1
2019-04-11T00:23:54.103Z,2.1
2019-04-11T00:25:06.029Z,2.2
2019-04-11T00:26:18.485Z,2.2
2019-04-11T00:27:30.675Z,2.2
2019-04-11T00:28:42.868Z,2.5
2019-04-11T00:29:55.070Z,2.2
2019-04-11T00:31:07.267Z,2.6
2019-04-11T00:32:19.445Z,2.4
2019-04-11T00:33:31.000Z,2.2
2019-04-11T00:34:43.842Z,2.7
2019-04-11T00:35:56.002Z,2.4
2019-04-11T00:37:08.227Z,2.6
2019-04-11T00:38:20.422Z,2.7
2019-04-11T00:39:32.610Z,2.3
2019-04-11T00:40:44.000Z,2.1
2019-04-11T00:41:56.000Z,2.5
2019-04-11T00:43:09.200Z,2.2
2019-04-11T00:44:21.039Z,2.1
2019-04-11T00:45:33.058Z,3.4
2019-04-11T00:46:45.768Z,2.8
2019-04-11T00:47:57.000Z,2
2019-04-11T00:49:10.273Z,1.8
2019-04-11T00:50:22.356Z,2.1
2019-04-11T00:51:34.054Z,2
2019-04-11T00:52:46.740Z,2.4
2019-04-11T00:53:58.000Z,2.5
2019-04-11T00:55:11.134Z,2.3
2019-04-11T00:56:23.330Z,2.5
2019-04-11T00:57:35.524Z,2.1
2019-04-11T00:58:47.707Z,2.6
2019-04-11T00:59:59.904Z,1.9
2019-04-11T01:01:12.095Z,1.9
2019-04-11T01:02:24.463Z,2.1
2019-04-11T01:03:36.479Z,2.4
2019-04-11T01:04:48.679Z,2.4
2019-04-11T01:06:00.000Z,2.1
2019-04-11T01:07:13.075Z,2.6
2019-04-11T01:08:25.257Z,2.7
2019-04-11T01:09:37.448Z,2.1
2019-04-11T01:12:01.833Z,2
2019-04-11T01:13:14.032Z,2
2019-04-11T01:14:26.224Z,2.9
2019-04-11T01:15:38.414Z,2.3
2019-04-11T01:16:50.000Z,2.9
2019-04-11T01:18:02.000Z,2.3
2019-04-11T01:19:14.998Z,2.3
2019-04-11T01:20:27.018Z,2.4
2019-04-11T01:21:39.408Z,2.2
2019-04-11T01:24:03.778Z,2.3
2019-04-11T01:25:15.963Z,3
2019-04-11T01:26:28.161Z,2
2019-04-11T01:27:40.348Z,2.1
2019-04-11T01:28:52.548Z,2.6
2019-04-11T01:30:04.738Z,2.7
2019-04-11T01:31:16.093Z,2
2019-04-11T01:32:29.128Z,2.2
2019-04-11T01:33:41.323Z,2.2
2019-04-11T01:34:53.516Z,2.8
2019-04-11T01:36:05.707Z,2.1
2019-04-11T01:37:17.902Z,2.6
2019-04-11T01:38:30.089Z,2.1
2019-04-11T01:39:42.284Z,2.2
2019-04-11T01:40:54.479Z,2.5
2019-04-11T01:42:06.000Z,2.1
2019-04-11T01:43:18.871Z,2.2
2019-04-11T01:44:31.057Z,1.8
2019-04-11T01:45:43.000Z,2
2019-04-11T01:46:55.443Z,2.2
2019-04-11T01:48:07.644Z,2.1
2019-04-11T01:49:19.838Z,2.3
2019-04-11T01:50:32.029Z,2.1
2019-04-11T01:51:44.021Z,2.8
2019-04-11T01:52:56.000Z,2.4
2019-04-11T01:54:08.000Z,2.5
2019-04-11T01:55:20.802Z,2.2
2019-04-11T01:56:32.000Z,2.4
2019-04-11T01:57:45.189Z,2.2
2019-04-11T01:58:57.407Z,2.3
2019-04-11T02:00:09.571Z,2.1
2019-04-11T02:01:21.848Z,2.5
2019-04-11T02:02:33.992Z,2
2019-04-11T02:03:46.168Z,2.4
2019-04-11T02:04:58.388Z,2
2019-04-11T02:06:10.000Z,2.3
2019-04-11T02:07:22.738Z,2
2019-04-11T02:08:34.925Z,2
2019-04-11T02:09:47.122Z,2.3
2019-04-11T02:12:11.514Z,2.2
2019-04-11T02:13:23.706Z,2
2019-04-11T02:14:35.000Z,2.1
2019-04-11T02:15:48.147Z,2.4
2019-04-11T02:17:00.028Z,2.4
2019-04-11T02:18:12.000Z,2.1
2019-04-11T02:19:24.694Z,2.3
2019-04-11T02:20:36.862Z,2
2019-04-11T02:21:49.060Z,2
2019-04-11T02:23:01.364Z,2.2
2019-04-11T02:25:25.646Z,2.4
2019-04-11T02:26:37.826Z,1.9
2019-04-11T02:27:50.025Z,2.2
2019-04-11T02:29:02.217Z,1.9
2019-04-11T02:30:14.446Z,1.8
2019-04-11T02:31:26.610Z,2.2
2019-04-11T02:32:38.798Z,2.1
2019-04-11T02:33:50.993Z,2.4
2019-04-11T02:35:03.185Z,2.3
2019-04-11T02:36:15.383Z,2.2
2019-04-11T02:37:27.579Z,2
2019-04-11T02:38:39.771Z,2.3
2019-04-11T02:39:51.963Z,2.4
2019-04-11T02:41:04.015Z,1.9
2019-04-11T02:42:16.349Z,2.1
2019-04-11T02:43:28.000Z,2.3
2019-04-11T02:44:40.735Z,1.8
2019-04-11T02:45:52.936Z,2.2
2019-04-11T02:48:17.312Z,2.2
2019-04-11T02:49:29.510Z,1.9
2019-04-11T02:50:41.000Z,2.2
2019-04-11T02:51:54.129Z,2.2
2019-04-11T02:53:06.009Z,2.3
2019-04-11T02:54:18.000Z,2.1
2019-04-11T02:55:30.481Z,2.1
2019-04-11T02:56:42.066Z,2.3
2019-04-11T02:57:54.857Z,2.2
2019-04-11T03:00:19.250Z,2
2019-04-11T03:01:31.441Z,2
2019-04-11T03:02:43.641Z,2.2
2019-04-11T03:03:55.926Z,2.3
2019-04-11T03:05:08.023Z,2.1
2019-04-11T03:06:20.000Z,1.9
2019-04-11T03:07:32.405Z,2.1
2019-04-11T03:08:44.608Z,2.2
2019-04-11T03:09:56.800Z,2
2019-04-11T03:11:08.991Z,2.4
2019-04-11T03:12:21.000Z,2
2019-04-11T03:13:33.379Z,2
2019-04-11T03:15:57.773Z,2.1
2019-04-11T03:17:09.958Z,2.2
2019-04-11T03:18:22.000Z,2
2019-04-11T03:19:34.000Z,2.1
2019-04-11T03:20:46.533Z,2
2019-04-11T03:21:58.733Z,2.4
2019-04-11T03:23:10.924Z,1.9
2019-04-11T03:24:23.012Z,1.9
2019-04-11T03:25:35.316Z,2.1
2019-04-11T03:26:47.000Z,2
2019-04-11T03:27:59.706Z,2
2019-04-11T03:29:11.995Z,2.2
2019-04-11T03:30:24.000Z,2.2
2019-04-11T03:31:36.290Z,2.1
2019-04-11T03:32:48.047Z,2.2
2019-04-11T03:34:00.672Z,2
2019-04-11T03:35:12.865Z,2.1
2019-04-11T03:36:25.068Z,2.4
2019-04-11T03:37:37.258Z,2
2019-04-11T03:38:49.454Z,2
2019-04-11T03:40:01.648Z,2.1
2019-04-11T03:41:13.843Z,2.1
2019-04-11T03:42:26.000Z,2.2
2019-04-11T03:43:38.233Z,2
2019-04-11T03:44:50.425Z,2
2019-04-11T03:48:27.006Z,1.9
2019-04-11T03:49:39.213Z,2.1
2019-04-11T03:50:51.399Z,2
2019-04-11T03:52:03.619Z,1.9
2019-04-11T03:53:15.791Z,2.1
2019-04-11T03:54:27.000Z,2.1
2019-04-11T03:55:40.201Z,2.5
2019-04-11T03:56:52.382Z,2
2019-04-11T03:58:04.568Z,1.9
2019-04-11T03:59:16.767Z,2
2019-04-11T04:00:28.979Z,2.1
2019-04-11T04:01:41.162Z,1.9
2019-04-11T04:02:53.003Z,1.9
2019-04-11T04:04:05.553Z,2
2019-04-11T04:05:17.740Z,2.1
2019-04-11T04:06:29.000Z,2.1
2019-04-11T04:07:42.128Z,1.8
2019-04-11T04:08:54.326Z,1.7
2019-04-11T04:10:06.526Z,2.2
2019-04-11T04:11:18.712Z,1.9
2019-04-11T04:12:30.907Z,2.2
2019-04-11T04:13:43.110Z,1.9
2019-04-11T04:14:55.307Z,2
2019-04-11T04:16:07.501Z,1.9
2019-04-11T04:17:19.000Z,1.9
2019-04-11T04:18:31.909Z,2
2019-04-11T04:19:44.087Z,2.2
2019-04-11T04:20:56.273Z,1.9
2019-04-11T04:22:08.473Z,2.3
2019-04-11T04:23:20.666Z,2
2019-04-11T04:24:32.865Z,2
2019-04-11T04:25:45.000Z,1.8
2019-04-11T04:26:57.255Z,2
2019-04-11T04:28:09.453Z,1.9
2019-04-11T04:29:21.644Z,2.2
2019-04-11T04:30:33.839Z,2.4
2019-04-11T04:31:46.000Z,1.8
2019-04-11T04:32:58.232Z,1.8
2019-04-11T04:34:10.417Z,2.1
2019-04-11T04:35:22.623Z,1.9
2019-04-11T04:36:34.818Z,1.7
2019-04-11T04:37:47.009Z,1.8
2019-04-11T04:40:11.410Z,1.9
2019-04-11T04:41:23.601Z,2
2019-04-11T04:42:35.000Z,1.9
2019-04-11T04:43:47.984Z,1.8
2019-04-11T04:45:00.179Z,2.2
2019-04-11T04:46:12.000Z,1.8
2019-04-11T04:47:24.056Z,1.9
2019-04-11T04:48:36.762Z,1.7
2019-04-11T04:49:48.098Z,1.8
2019-04-11T04:51:01.154Z,1.6
2019-04-11T04:52:13.347Z,1.8
2019-04-11T04:53:25.000Z,1.8
2019-04-11T04:54:37.000Z,1.8
2019-04-11T04:55:49.093Z,1.9
2019-04-11T04:57:02.119Z,2
2019-04-11T04:58:14.327Z,1.9
2019-04-11T04:59:26.517Z,1.7
2019-04-11T05:00:38.709Z,1.8
2019-04-11T05:01:50.000Z,1.9
2019-04-11T05:03:03.103Z,1.8
2019-04-11T05:04:15.299Z,1.8
2019-04-11T05:05:27.487Z,2.1
2019-04-11T05:06:39.000Z,1.6
2019-04-11T05:07:51.095Z,1.7
2019-04-11T05:09:04.079Z,2
2019-04-11T05:10:16.267Z,2
2019-04-11T05:11:28.470Z,1.8
2019-04-11T05:12:40.657Z,1.7
2019-04-11T05:13:52.855Z,1.8
2019-04-11T05:15:05.053Z,1.7
2019-04-11T05:16:17.024Z,1.9
2019-04-11T05:17:29.443Z,2
2019-04-11T05:18:41.633Z,1.7
2019-04-11T05:21:06.032Z,1.9
2019-04-11T05:22:18.000Z,1.9
2019-04-11T05:24:42.605Z,2
2019-04-11T05:25:54.000Z,1.9
2019-04-11T05:27:07.000Z,1.6
2019-04-11T05:28:19.217Z,1.9
2019-04-11T05:29:31.382Z,1.7
2019-04-11T05:30:43.000Z,1.9
2019-04-11T05:31:55.779Z,1.8
2019-04-11T05:33:07.966Z,1.7
2019-04-11T05:34:20.166Z,1.7
2019-04-11T05:35:32.036Z,1.7
2019-04-11T05:36:44.056Z,1.6
2019-04-11T05:37:56.786Z,2.3
2019-04-11T05:39:08.946Z,1.8
2019-04-11T05:40:21.150Z,1.8
2019-04-11T05:41:33.342Z,1.9
2019-04-11T05:42:45.000Z,1.9
2019-04-11T05:43:57.000Z,1.9
2019-04-11T05:45:09.919Z,1.8
2019-04-11T05:46:22.011Z,2
2019-04-11T05:48:46.064Z,1.9
2019-04-11T05:49:58.766Z,1.8
2019-04-11T05:51:10.899Z,1.6
2019-04-11T05:52:23.090Z,2.1
2019-04-11T05:53:35.290Z,1.8
2019-04-11T05:54:47.494Z,1.8
2019-04-11T05:55:59.678Z,1.6
2019-04-11T05:57:11.877Z,1.9
2019-04-11T05:58:24.063Z,2.2
2019-04-11T05:59:36.260Z,1.8
2019-04-11T06:00:48.560Z,1.8
2019-04-11T06:02:00.656Z,1.7
2019-04-11T06:03:12.000Z,2.1
2019-04-11T06:04:25.043Z,2.5
2019-04-11T06:05:37.240Z,1.9
2019-04-11T06:06:49.962Z,1.9
2019-04-11T06:09:13.825Z,1.8
2019-04-11T06:10:26.015Z,2
2019-04-11T06:11:38.203Z,2.9
2019-04-11T06:12:50.000Z,1.8
2019-04-11T06:15:14.807Z,1.6
2019-04-11T06:16:26.988Z,1.7
2019-04-11T06:17:39.181Z,1.9
2019-04-11T06:18:51.381Z,1.7
2019-04-11T06:20:03.582Z,1.7
2019-04-11T06:21:15.781Z,1.7
2019-04-11T06:22:27.959Z,2.3
2019-04-11T06:23:40.154Z,1.8
2019-04-11T06:24:52.354Z,1.8
2019-04-11T06:26:04.551Z,1.8
2019-04-11T06:27:16.738Z,1.9
2019-04-11T06:28:28.959Z,1.6
2019-04-11T06:29:41.014Z,2.3
2019-04-11T06:30:53.327Z,2.4
2019-04-11T06:32:05.517Z,2.2
2019-04-11T06:33:17.714Z,2
2019-04-11T06:34:29.917Z,1.7
2019-04-11T06:36:54.304Z,1.6
2019-04-11T06:38:06.000Z,1.7
2019-04-11T06:39:18.696Z,2.9
2019-04-11T06:40:30.888Z,2.3
2019-04-11T06:41:43.083Z,1.7
2019-04-11T06:42:55.000Z,2
2019-04-11T06:45:19.667Z,1.8
2019-04-11T06:46:31.952Z,2.6
2019-04-11T06:47:44.058Z,1.8
2019-04-11T06:48:56.253Z,2.1
2019-04-11T06:50:08.448Z,2.7
2019-04-11T06:52:32.837Z,1.9
2019-04-11T06:53:45.038Z,1.9
2019-04-11T06:54:57.000Z,3
2019-04-11T06:56:09.042Z,2.1
2019-04-11T06:57:21.659Z,1.8
2019-04-11T06:58:33.808Z,1.9
2019-04-11T06:59:46.006Z,2
2019-04-11T07:00:58.250Z,1.8
2019-04-11T07:02:10.397Z,2
2019-04-11T07:03:22.587Z,2.2
2019-04-11T07:04:34.783Z,2
2019-04-11T07:05:46.980Z,1.9
2019-04-11T07:06:59.000Z,2.2
2019-04-11T07:08:11.370Z,1.7
2019-04-11T07:09:23.625Z,3.1
2019-04-11T07:10:35.000Z,2.4
2019-04-11T07:13:00.154Z,2.3
2019-04-11T07:14:12.347Z,1.9
2019-04-11T07:15:24.057Z,1.8
2019-04-11T07:16:36.771Z,3.2
2019-04-11T07:17:48.939Z,3
2019-04-11T07:19:01.127Z,1.8
2019-04-11T07:20:13.319Z,2.2
2019-04-11T07:21:25.508Z,1.8
2019-04-11T07:22:37.711Z,2
2019-04-11T07:23:49.907Z,1.9
2019-04-11T07:25:02.011Z,2.2
2019-04-11T07:26:14.290Z,2.7
2019-04-11T07:27:26.489Z,2.1
2019-04-11T07:28:38.891Z,2.5
2019-04-11T07:29:50.881Z,2.9
2019-04-11T07:31:03.000Z,2.2
2019-04-11T07:32:15.279Z,3.4
2019-04-11T07:33:27.466Z,2
2019-04-11T07:34:39.657Z,1.8
2019-04-11T07:37:04.052Z,2.2
2019-04-11T07:38:16.249Z,3.3
2019-04-11T07:39:28.469Z,2
2019-04-11T07:40:40.640Z,2.1
2019-04-11T07:41:52.823Z,2.1
2019-04-11T07:43:05.020Z,3.8
2019-04-11T07:44:17.219Z,3.6
2019-04-11T07:45:29.423Z,5.7
2019-04-11T07:46:41.000Z,3
2019-04-11T07:50:18.022Z,2
2019-04-11T07:51:30.386Z,2.7
2019-04-11T07:52:42.586Z,3.1
2019-04-11T07:53:54.778Z,2.6
2019-04-11T07:55:06.000Z,3.5
2019-04-11T07:56:19.017Z,3.5
2019-04-11T07:57:31.047Z,3.1
2019-04-11T07:58:43.562Z,2.8
2019-04-11T08:01:07.954Z,2.6
2019-04-11T08:02:20.149Z,3.3
2019-04-11T08:04:44.536Z,3.2
2019-04-11T08:05:56.730Z,3.1
2019-04-11T08:07:08.925Z,2.3
2019-04-11T08:08:21.000Z,2.1
2019-04-11T08:09:33.318Z,1.9
2019-04-11T08:10:45.512Z,4.4
2019-04-11T08:11:57.707Z,3.5
2019-04-11T08:13:09.090Z,4.6
2019-04-11T08:14:22.113Z,3.4
2019-04-11T08:15:34.294Z,2.8
2019-04-11T08:16:46.496Z,2.9
2019-04-11T08:17:58.068Z,2.6
2019-04-11T08:19:10.886Z,2.9
2019-04-11T08:20:23.081Z,4.2
2019-04-11T08:21:35.271Z,4
2019-04-11T08:22:47.000Z,2.5
2019-04-11T08:23:59.663Z,4.5
2019-04-11T08:25:11.872Z,3.6
2019-04-11T08:26:24.061Z,4.1
2019-04-11T08:27:36.252Z,2.5
2019-04-11T08:28:48.450Z,2.9
2019-04-11T08:30:00.637Z,3.7
2019-04-11T08:31:12.831Z,4.1
2019-04-11T08:33:37.228Z,3.8
2019-04-11T08:34:49.423Z,3.3
2019-04-11T08:36:01.624Z,3.9
2019-04-11T08:37:13.080Z,2.7
2019-04-11T08:38:26.007Z,3.5
2019-04-11T08:39:38.202Z,3.5
2019-04-11T08:40:50.400Z,4.1
2019-04-11T08:42:02.596Z,4.3
2019-04-11T08:43:14.794Z,3.9
2019-04-11T08:44:26.000Z,4.7
2019-04-11T08:45:39.000Z,5.5
2019-04-11T08:46:51.382Z,5.1
2019-04-11T08:48:03.572Z,3.5
2019-04-11T08:49:15.766Z,4.8
2019-04-11T08:50:28.004Z,3.6
2019-04-11T08:51:40.000Z,4
2019-04-11T08:52:52.355Z,3.7
2019-04-11T08:54:04.556Z,5.5
2019-04-11T08:55:16.741Z,6.3
2019-04-11T08:56:29.151Z,4.1
2019-04-11T08:57:41.139Z,3.6
2019-04-11T08:58:53.331Z,2.8
2019-04-11T09:00:05.530Z,5.7
2019-04-11T09:02:29.920Z,5
2019-04-11T09:03:42.113Z,3.8
2019-04-11T09:04:54.308Z,5.2
2019-04-11T09:06:06.512Z,3.9
2019-04-11T09:07:18.697Z,6.9
2019-04-11T09:08:30.899Z,4.2
2019-04-11T09:09:43.109Z,5.8
2019-04-11T09:10:55.277Z,5.2
2019-04-11T09:12:07.487Z,4.1
2019-04-11T09:13:19.943Z,5.7
2019-04-11T09:14:31.876Z,4.8
2019-04-11T09:15:44.070Z,4.8
2019-04-11T09:16:56.257Z,3.5
2019-04-11T09:18:08.045Z,4.6
2019-04-11T09:19:20.000Z,3.5
2019-04-11T09:20:32.846Z,3.2
2019-04-11T09:21:45.064Z,4.7
2019-04-11T09:22:57.236Z,4.8
2019-04-11T09:24:09.428Z,6.3
2019-04-11T09:25:21.624Z,4.6
2019-04-11T09:26:33.819Z,6.8
2019-04-11T09:27:46.013Z,5.6
2019-04-11T09:28:58.000Z,4.1
2019-04-11T09:30:10.406Z,4.3
2019-04-11T09:31:22.000Z,5
2019-04-11T09:32:34.818Z,5
2019-04-11T09:33:46.099Z,5.9
2019-04-11T09:34:59.195Z,4.8
2019-04-11T09:36:11.387Z,3.3
2019-04-11T09:37:23.671Z,3.7
2019-04-11T09:38:35.771Z,5
2019-04-11T09:39:47.976Z,4.1
2019-04-11T09:41:00.168Z,5.1
2019-04-11T09:42:12.363Z,4
2019-04-11T09:43:24.562Z,5.4
2019-04-11T09:44:36.755Z,5.7
2019-04-11T09:45:48.942Z,3.6
2019-04-11T09:47:01.147Z,4.7
2019-04-11T09:49:25.537Z,3.9
2019-04-11T09:50:37.730Z,4.8
2019-04-11T09:51:49.945Z,5.7
2019-04-11T09:53:02.152Z,6.8
2019-04-11T09:54:14.320Z,6.5
2019-04-11T09:55:26.000Z,3.4
2019-04-11T09:56:38.710Z,7.1
2019-04-11T09:57:51.051Z,5.1
2019-04-11T09:59:03.123Z,6.2
2019-04-11T10:00:15.301Z,6.6
2019-04-11T10:01:27.489Z,4.3
2019-04-11T10:02:39.684Z,7.3
2019-04-11T10:03:51.881Z,5.6
2019-04-11T10:05:04.084Z,7.5
2019-04-11T10:06:16.272Z,6.1
2019-04-11T10:07:28.000Z,4.3
2019-04-11T10:08:40.664Z,6.9
2019-04-11T10:09:52.853Z,5.4
2019-04-11T10:11:05.069Z,4.4
2019-04-11T10:12:17.250Z,3.8
2019-04-11T10:13:29.439Z,5.1
2019-04-11T10:14:41.000Z,4.1
2019-04-11T10:15:53.831Z,5.5
2019-04-11T10:17:06.029Z,5
2019-04-11T10:18:18.000Z,5.7
2019-04-11T10:19:30.000Z,4.7
2019-04-11T10:20:42.612Z,4
2019-04-11T10:21:54.000Z,3.9
2019-04-11T10:23:07.006Z,4.3
2019-04-11T10:24:19.193Z,5
2019-04-11T10:25:31.580Z,5.8
2019-04-11T10:26:43.590Z,4.5
2019-04-11T10:27:55.793Z,5.9
2019-04-11T10:29:07.982Z,5.7
2019-04-11T10:30:20.019Z,5.1
2019-04-11T10:31:32.368Z,4.3
2019-04-11T10:32:44.569Z,7.4
2019-04-11T10:33:56.752Z,7.6
2019-04-11T10:35:08.963Z,6.8
2019-04-11T10:36:21.146Z,4.4
2019-04-11T10:37:33.338Z,4.9
2019-04-11T10:38:45.541Z,4
2019-04-11T10:39:57.732Z,6.7
2019-04-11T10:41:09.936Z,6.4
2019-04-11T10:42:22.148Z,5.7
2019-04-11T10:43:34.000Z,7
2019-04-11T10:44:46.518Z,6
2019-04-11T10:45:58.713Z,4.5
2019-04-11T10:47:10.902Z,5.9
2019-04-11T10:50:47.051Z,5.7
2019-04-11T10:51:59.682Z,6.8
2019-04-11T10:53:11.911Z,7
2019-04-11T10:54:24.000Z,4.6
2019-04-11T10:55:36.286Z,8.6
2019-04-11T10:56:48.468Z,5.7
2019-04-11T10:58:00.657Z,4.4
2019-04-11T10:59:12.936Z,6.5
2019-04-11T11:00:25.047Z,6.2
2019-04-11T11:01:37.000Z,7.1
2019-04-11T11:02:49.043Z,6.2
2019-04-11T11:04:01.630Z,4.7
2019-04-11T11:05:13.825Z,7
2019-04-11T11:06:26.036Z,5.8
2019-04-11T11:07:38.000Z,4.9
2019-04-11T11:08:50.419Z,6.4
2019-04-11T11:10:02.610Z,5.5
2019-04-11T11:11:14.804Z,6
2019-04-11T11:13:39.195Z,7.6
2019-04-11T11:14:51.388Z,8.7
2019-04-11T11:16:03.000Z,7.3
2019-04-11T11:17:15.785Z,6.9
2019-04-11T11:18:27.975Z,7.2
2019-04-11T11:19:40.000Z,4.7
2019-04-11T11:20:52.367Z,4.4
2019-04-11T11:22:04.555Z,6.8
2019-04-11T11:23:16.779Z,6.1
2019-04-11T11:24:28.949Z,7.6
2019-04-11T11:25:41.141Z,6.6
2019-04-11T11:26:53.003Z,6
2019-04-11T11:28:05.544Z,6.4
2019-04-11T11:29:17.728Z,8.7
2019-04-11T11:30:29.931Z,4.6
2019-04-11T11:31:42.117Z,7.3
2019-04-11T11:32:54.317Z,6.7
2019-04-11T11:34:06.507Z,6.4
2019-04-11T11:35:18.701Z,6.7
2019-04-11T11:37:43.000Z,5.5
2019-04-11T11:38:55.029Z,6.3
2019-04-11T11:40:07.491Z,9
2019-04-11T11:41:19.689Z,5
2019-04-11T11:42:31.881Z,7.2
2019-04-11T11:43:44.000Z,7
2019-04-11T11:44:56.262Z,7
2019-04-11T11:46:08.456Z,7.6
2019-04-11T11:47:20.664Z,5.6
2019-04-11T11:48:32.854Z,6.1
2019-04-11T11:49:45.063Z,5.6
2019-04-11T11:50:57.236Z,5.7
2019-04-11T11:52:09.440Z,6.4
2019-04-11T11:53:21.631Z,9.3
2019-04-11T11:54:33.820Z,6.8
2019-04-11T11:55:46.027Z,7.4
2019-04-11T11:56:58.236Z,4.4
2019-04-11T11:58:10.416Z,4.7
2019-04-11T11:59:22.603Z,6.5
2019-04-11T12:00:34.804Z,6.4
2019-04-11T12:01:46.999Z,6.6
2019-04-11T12:02:59.270Z,8
2019-04-11T12:04:11.388Z,6.9
2019-04-11T12:05:23.586Z,5.1
2019-04-11T12:06:35.780Z,4.3
2019-04-11T12:07:47.972Z,7.8
2019-04-11T12:10:12.364Z,6.3
2019-04-11T12:12:36.757Z,5.6
2019-04-11T12:13:48.000Z,5.8
2019-04-11T12:15:01.145Z,5.8
2019-04-11T12:16:13.334Z,7.1
2019-04-11T12:17:25.536Z,6.8
2019-04-11T12:18:37.733Z,7.2
2019-04-11T12:19:49.000Z,9.2
2019-04-11T12:21:02.000Z,11.7
2019-04-11T12:22:14.314Z,9.3
2019-04-11T12:23:26.510Z,7.5
2019-04-11T12:24:38.706Z,12.7
2019-04-11T12:25:50.912Z,8.1
2019-04-11T12:27:03.089Z,6.4
2019-04-11T12:28:15.000Z,7.6
2019-04-11T12:29:27.485Z,8.9
2019-04-11T12:30:39.676Z,8.2
2019-04-11T12:31:51.868Z,7.2
2019-04-11T12:33:04.069Z,11
2019-04-11T12:34:16.331Z,7
2019-04-11T12:35:28.458Z,7.2
2019-04-11T12:36:40.071Z,7.8
2019-04-11T12:37:52.864Z,9.5
2019-04-11T12:39:05.057Z,10.7
2019-04-11T12:40:17.244Z,9.4
2019-04-11T12:41:29.427Z,7.8
2019-04-11T12:42:41.635Z,10.1
2019-04-11T12:45:06.169Z,8.1
2019-04-11T12:46:18.000Z,8.2
2019-04-11T12:47:30.415Z,9.9
2019-04-11T12:48:42.601Z,8.5
2019-04-11T12:49:54.801Z,7.1
2019-04-11T12:51:06.988Z,7.7
2019-04-11T12:52:19.180Z,10.2
2019-04-11T12:53:31.378Z,8.3
2019-04-11T12:54:43.571Z,9.9
2019-04-11T12:55:55.759Z,9.1
2019-04-11T12:57:07.964Z,7.2
2019-04-11T12:58:20.213Z,8.4
2019-04-11T12:59:32.345Z,9.9
2019-04-11T13:00:44.537Z,8.8
2019-04-11T13:01:56.797Z,7.6
2019-04-11T13:03:08.933Z,8.5
2019-04-11T13:04:21.001Z,8.9
2019-04-11T13:05:33.310Z,6.5
2019-04-11T13:06:45.515Z,6.6
2019-04-11T13:07:57.000Z,8.7
2019-04-11T13:09:09.896Z,9.2
2019-04-11T13:10:22.257Z,10.5
2019-04-11T13:11:34.279Z,10.9
2019-04-11T13:13:58.670Z,6.7
2019-04-11T13:15:10.088Z,14
2019-04-11T13:16:23.006Z,12.1
2019-04-11T13:17:35.248Z,10.9
2019-04-11T13:18:47.447Z,9.1
2019-04-11T13:19:59.000Z,11.9
2019-04-11T13:21:11.831Z,9.9
2019-04-11T13:22:24.027Z,9.4
2019-04-11T13:23:36.211Z,8.7
2019-04-11T13:24:48.408Z,7.5
2019-04-11T13:26:00.597Z,12.2
2019-04-11T13:27:12.796Z,12.2
2019-04-11T13:28:24.985Z,11.7
2019-04-11T13:29:37.197Z,9.6
2019-04-11T13:30:49.640Z,11.4
2019-04-11T13:32:01.000Z,10.2
2019-04-11T13:34:25.956Z,10.7
2019-04-11T13:35:38.152Z,11.1
2019-04-11T13:36:50.337Z,7.8
2019-04-11T13:38:02.531Z,9.8
2019-04-11T13:39:14.733Z,11.5
2019-04-11T13:40:26.917Z,12.2
2019-04-11T13:41:39.117Z,9.9
2019-04-11T13:44:03.000Z,7.4
2019-04-11T13:45:15.694Z,10.6
2019-04-11T13:46:27.884Z,13
2019-04-11T13:47:40.079Z,10.5
2019-04-11T13:48:52.270Z,9.7
2019-04-11T13:50:04.465Z,8.8
2019-04-11T13:51:16.661Z,10.1
2019-04-11T13:52:28.859Z,8.1
2019-04-11T13:53:41.055Z,8.8
2019-04-11T13:54:53.238Z,9.5
2019-04-11T13:56:05.000Z,12.6
2019-04-11T13:57:17.623Z,14.7
2019-04-11T13:58:29.822Z,11.1
2019-04-11T13:59:42.015Z,10.1
2019-04-11T14:00:54.207Z,13.4
2019-04-11T14:02:06.434Z,9.3
2019-04-11T14:03:18.600Z,11
2019-04-11T14:04:30.797Z,14.5
2019-04-11T14:05:42.990Z,13.6
2019-04-11T14:06:55.192Z,14.1
2019-04-11T14:08:07.000Z,9.2
2019-04-11T14:09:19.563Z,17.2
2019-04-11T14:10:31.758Z,13.4
2019-04-11T14:11:44.007Z,11.5
2019-04-11T14:12:56.141Z,9.5
2019-04-11T14:14:08.035Z,10.7
2019-04-11T14:15:20.526Z,12.3
2019-04-11T14:16:32.728Z,12.3
2019-04-11T14:17:44.920Z,11.6
2019-04-11T14:18:57.108Z,11.9
2019-04-11T14:20:09.000Z,11
2019-04-11T14:21:21.495Z,8.9
2019-04-11T14:22:33.695Z,11.4
2019-04-11T14:23:45.884Z,8.9
2019-04-11T14:24:58.109Z,10.8
2019-04-11T14:26:10.282Z,9.6
2019-04-11T14:27:22.457Z,9.2
2019-04-11T14:28:34.670Z,11.8
2019-04-11T14:29:46.849Z,9.6
2019-04-11T14:30:59.038Z,11.7
2019-04-11T14:32:11.229Z,10.1
2019-04-11T14:33:23.433Z,10.9
2019-04-11T14:34:35.625Z,9.7
2019-04-11T14:35:47.813Z,11.6
2019-04-11T14:37:00.124Z,9.9
2019-04-11T14:38:12.221Z,10.1
2019-04-11T14:39:24.421Z,13.9
2019-04-11T14:40:36.059Z,11
2019-04-11T14:41:48.784Z,11
2019-04-11T14:43:00.977Z,11.3
2019-04-11T14:44:13.168Z,10.5
2019-04-11T14:45:25.359Z,11
2019-04-11T14:46:37.560Z,11.1
2019-04-11T14:47:49.751Z,10.6
2019-04-11T14:50:14.148Z,11.6
2019-04-11T14:52:37.000Z,9
2019-04-11T14:53:50.721Z,10.3
2019-04-11T14:55:02.906Z,12.4
2019-04-11T14:56:15.000Z,11.8
2019-04-11T14:57:27.298Z,7.7
2019-04-11T14:58:39.489Z,7.7
2019-04-11T14:59:51.000Z,7.6
2019-04-11T15:01:03.873Z,10.8
2019-04-11T15:02:16.065Z,11.4
2019-04-11T15:03:28.262Z,12.5
2019-04-11T15:04:40.457Z,10.8
2019-04-11T15:05:52.652Z,12.6
2019-04-11T15:07:04.863Z,9.5
2019-04-11T15:08:17.229Z,9.9
2019-04-11T15:09:29.232Z,8.6
2019-04-11T15:10:41.428Z,11
2019-04-11T15:11:53.067Z,6.8
2019-04-11T15:14:18.005Z,8.8
2019-04-11T15:15:30.196Z,9.9
2019-04-11T15:16:42.039Z,9.1
2019-04-11T15:17:54.584Z,10.2
2019-04-11T15:19:06.783Z,9.4
2019-04-11T15:20:18.968Z,9.7
2019-04-11T15:21:31.170Z,11.2
2019-04-11T15:22:43.000Z,8.6
2019-04-11T15:23:55.547Z,11.7
2019-04-11T15:25:07.754Z,10
2019-04-11T15:26:19.937Z,10.8
2019-04-11T15:27:32.130Z,12.6
2019-04-11T15:28:44.396Z,11.4
2019-04-11T15:29:56.513Z,7.5
2019-04-11T15:31:08.711Z,11.6
2019-04-11T15:32:20.091Z,11.1
2019-04-11T15:33:33.107Z,7.5
2019-04-11T15:34:45.303Z,10.3
2019-04-11T15:35:57.483Z,8.6
2019-04-11T15:37:09.678Z,8.1
2019-04-11T15:38:21.874Z,8.1
2019-04-11T15:39:34.073Z,8
2019-04-11T15:40:46.257Z,7.6
2019-04-11T15:41:58.452Z,10.8
2019-04-11T15:43:10.649Z,8.1
2019-04-11T15:44:22.845Z,12
2019-04-11T15:45:35.034Z,9.5
2019-04-11T15:46:47.222Z,7.9
2019-04-11T15:47:59.419Z,8.5
2019-04-11T15:50:23.080Z,9.7
2019-04-11T15:51:36.003Z,8.1
2019-04-11T15:52:48.195Z,7.6
2019-04-11T15:54:00.389Z,10.3
2019-04-11T15:55:12.061Z,8.1
2019-04-11T15:56:24.000Z,9.4
2019-04-11T15:57:36.980Z,8.5
2019-04-11T15:58:49.000Z,5.9
2019-04-11T16:00:01.358Z,7.9
2019-04-11T16:01:13.054Z,11
2019-04-11T16:02:25.743Z,8.4
2019-04-11T16:03:37.932Z,10
2019-04-11T16:04:50.128Z,11.9
2019-04-11T16:06:02.318Z,11.3
2019-04-11T16:07:14.510Z,8.6
2019-04-11T16:08:26.000Z,12.4
2019-04-11T16:09:38.902Z,8
2019-04-11T16:10:51.000Z,8.8
2019-04-11T16:14:27.675Z,7
2019-04-11T16:15:39.869Z,8.7
2019-04-11T16:16:52.069Z,9.7
2019-04-11T16:18:04.254Z,8.1
2019-04-11T16:19:16.447Z,10
2019-04-11T16:20:28.000Z,7
2019-04-11T16:21:40.832Z,7.3
2019-04-11T16:22:53.000Z,6.9
2019-04-11T16:24:05.228Z,6.9
2019-04-11T16:25:17.416Z,11.8
2019-04-11T16:27:41.801Z,25.5
2019-04-11T16:28:53.991Z,17.6
2019-04-11T16:30:06.195Z,17.9
2019-04-11T16:31:18.000Z,17.6
2019-04-11T16:32:30.000Z,16.3
2019-04-11T16:33:42.778Z,12.1
2019-04-11T16:34:54.961Z,14.8
2019-04-11T16:36:07.152Z,13.4
2019-04-11T16:37:19.355Z,12.2
2019-04-11T16:38:31.540Z,11.5
2019-04-11T16:39:43.735Z,10.7
2019-04-11T16:40:55.961Z,11.1
2019-04-11T16:42:08.129Z,10.5
2019-04-11T16:43:20.318Z,15.5
2019-04-11T16:44:32.523Z,11.2
2019-04-11T16:45:44.070Z,9
2019-04-11T16:46:56.899Z,10.5
2019-04-11T16:48:09.000Z,11.7
2019-04-11T16:49:21.287Z,11.7
2019-04-11T16:50:33.478Z,9.4
2019-04-11T16:51:45.697Z,8.8
2019-04-11T16:52:57.884Z,8.5
2019-04-11T16:54:10.058Z,8.8
2019-04-11T16:55:22.252Z,10.4
2019-04-11T16:56:34.000Z,9.6
2019-04-11T16:57:46.641Z,10.3
2019-04-11T16:58:58.835Z,8.3
2019-04-11T17:00:11.002Z,8.1
2019-04-11T17:01:23.241Z,9.2
2019-04-11T17:02:35.409Z,8.7
2019-04-11T17:03:47.608Z,7.5
2019-04-11T17:04:59.833Z,10.1
2019-04-11T17:07:24.019Z,7.4
2019-04-11T17:08:36.380Z,9.8
2019-04-11T17:09:48.571Z,10.4
2019-04-11T17:11:00.767Z,7.5
2019-04-11T17:12:12.958Z,10.3
2019-04-11T17:14:37.349Z,9.8
2019-04-11T17:15:49.539Z,11.1
2019-04-11T17:17:01.736Z,7.2
2019-04-11T17:18:13.927Z,9.6
2019-04-11T17:19:26.115Z,7.3
2019-04-11T17:20:38.319Z,6.9
2019-04-11T17:21:50.514Z,6.5
2019-04-11T17:23:02.698Z,6.7
2019-04-11T17:24:14.895Z,8.4
2019-04-11T17:25:27.085Z,7.5
2019-04-11T17:26:39.281Z,9.7
2019-04-11T17:27:51.484Z,7.6
2019-04-11T17:29:03.000Z,6.8
2019-04-11T17:30:15.869Z,8.7
2019-04-11T17:31:28.000Z,6.4
2019-04-11T17:32:40.000Z,7.7
2019-04-11T17:33:52.434Z,9.2
2019-04-11T17:35:04.630Z,6.5